sensor_id;sensor_type;location;lat;lon;timestamp;P1;durP1;ratioP1;P2;durP2;ratioP2
65387;SDS011;51992;53.528;49.474;2022-11-25T00:01:59;18.48;;;15.10;;
65387;SDS011;51992;53.528;49.474;2022-11-25T00:04:25;19.92;;;15.18;;
65387;SDS011;51992;53.528;49.474;2022-11-25T00:06:50;20.90;;;15.77;;
65387;SDS011;51992;53.528;49.474;2022-11-25T00:09:16;23.13;;;17.40;;
65387;SDS011;51992;53.528;49.474;2022-11-25T00:11:42;19.92;;;15.38;;
65387;SDS011;51992;53.528;49.474;2022-11-25T00:14:11;34.45;;;17.08;;
65387;SDS011;51992;53.528;49.474;2022-11-25T00:16:37;86.50;;;22.95;;
65387;SDS011;51992;53.528;49.474;2022-11-25T00:19:03;59.58;;;19.48;;
65387;SDS011;51992;53.528;49.474;2022-11-25T00:21:30;81.18;;;22.13;;
65387;SDS011;51992;53.528;49.474;2022-11-25T00:23:58;40.85;;;18.80;;
65387;SDS011;51992;53.528;49.474;2022-11-25T00:26:25;32.90;;;18.35;;
65387;SDS011;51992;53.528;49.474;2022-11-25T00:28:51;21.10;;;16.00;;
65387;SDS011;51992;53.528;49.474;2022-11-25T00:31:18;20.85;;;16.05;;
65387;SDS011;51992;53.528;49.474;2022-11-25T00:33:44;20.52;;;15.77;;
65387;SDS011;51992;53.528;49.474;2022-11-25T00:38:39;22.48;;;15.40;;
65387;SDS011;51992;53.528;49.474;2022-11-25T00:41:05;19.98;;;15.48;;
65387;SDS011;51992;53.528;49.474;2022-11-25T00:43:49;20.80;;;16.65;;
65387;SDS011;51992;53.528;49.474;2022-11-25T00:46:33;20.17;;;15.00;;
65387;SDS011;51992;53.528;49.474;2022-11-25T00:48:59;18.92;;;14.07;;
65387;SDS011;51992;53.528;49.474;2022-11-25T00:51:24;19.45;;;14.80;;
65387;SDS011;51992;53.528;49.474;2022-11-25T00:53:50;16.92;;;12.82;;
65387;SDS011;51992;53.528;49.474;2022-11-25T00:56:16;19.27;;;14.23;;
65387;SDS011;51992;53.528;49.474;2022-11-25T00:58:42;19.65;;;14.38;;
65387;SDS011;51992;53.528;49.474;2022-11-25T01:01:08;19.30;;;14.77;;
65387;SDS011;51992;53.528;49.474;2022-11-25T01:03:34;17.92;;;14.07;;
65387;SDS011;51992;53.528;49.474;2022-11-25T01:06:02;18.63;;;14.90;;
65387;SDS011;51992;53.528;49.474;2022-11-25T01:08:31;16.20;;;13.30;;
65387;SDS011;51992;53.528;49.474;2022-11-25T01:11:04;17.60;;;13.60;;
65387;SDS011;51992;53.528;49.474;2022-11-25T01:13:30;18.73;;;14.95;;
65387;SDS011;51992;53.528;49.474;2022-11-25T01:15:56;19.73;;;14.80;;
65387;SDS011;51992;53.528;49.474;2022-11-25T01:18:25;17.98;;;14.23;;
65387;SDS011;51992;53.528;49.474;2022-11-25T01:20:50;20.08;;;15.40;;
65387;SDS011;51992;53.528;49.474;2022-11-25T01:23:16;19.05;;;14.20;;
65387;SDS011;51992;53.528;49.474;2022-11-25T01:25:42;18.95;;;14.15;;
65387;SDS011;51992;53.528;49.474;2022-11-25T01:28:07;18.17;;;14.07;;
65387;SDS011;51992;53.528;49.474;2022-11-25T01:30:33;18.42;;;13.30;;
65387;SDS011;51992;53.528;49.474;2022-11-25T01:32:59;16.63;;;13.07;;
65387;SDS011;51992;53.528;49.474;2022-11-25T01:35:24;19.60;;;14.15;;
65387;SDS011;51992;53.528;49.474;2022-11-25T01:37:50;18.90;;;15.23;;
65387;SDS011;51992;53.528;49.474;2022-11-25T01:40:16;20.55;;;15.65;;
65387;SDS011;51992;53.528;49.474;2022-11-25T01:42:42;21.80;;;15.88;;
65387;SDS011;51992;53.528;49.474;2022-11-25T01:47:46;22.85;;;15.85;;
65387;SDS011;51992;53.528;49.474;2022-11-25T01:50:12;22.75;;;16.70;;
65387;SDS011;51992;53.528;49.474;2022-11-25T01:52:42;22.40;;;16.92;;
65387;SDS011;51992;53.528;49.474;2022-11-25T01:55:11;23.95;;;17.38;;
65387;SDS011;51992;53.528;49.474;2022-11-25T01:57:46;24.15;;;16.65;;
65387;SDS011;51992;53.528;49.474;2022-11-25T02:00:13;22.35;;;16.30;;
65387;SDS011;51992;53.528;49.474;2022-11-25T02:02:39;20.40;;;15.38;;
65387;SDS011;51992;53.528;49.474;2022-11-25T02:05:08;19.48;;;14.20;;
65387;SDS011;51992;53.528;49.474;2022-11-25T02:07:36;17.67;;;13.93;;
65387;SDS011;51992;53.528;49.474;2022-11-25T02:10:03;20.02;;;15.00;;
65387;SDS011;51992;53.528;49.474;2022-11-25T02:12:29;19.50;;;14.27;;
65387;SDS011;51992;53.528;49.474;2022-11-25T02:14:55;16.60;;;13.27;;
65387;SDS011;51992;53.528;49.474;2022-11-25T02:17:21;18.17;;;14.05;;
65387;SDS011;51992;53.528;49.474;2022-11-25T02:19:51;17.05;;;13.45;;
65387;SDS011;51992;53.528;49.474;2022-11-25T02:22:55;16.75;;;13.35;;
65387;SDS011;51992;53.528;49.474;2022-11-25T02:25:18;17.67;;;13.80;;
65387;SDS011;51992;53.528;49.474;2022-11-25T02:27:45;19.75;;;14.10;;
65387;SDS011;51992;53.528;49.474;2022-11-25T02:30:12;18.85;;;15.10;;
65387;SDS011;51992;53.528;49.474;2022-11-25T02:32:42;17.02;;;13.98;;
65387;SDS011;51992;53.528;49.474;2022-11-25T02:37:52;18.63;;;14.18;;
65387;SDS011;51992;53.528;49.474;2022-11-25T02:40:19;17.33;;;13.98;;
65387;SDS011;51992;53.528;49.474;2022-11-25T02:42:46;18.58;;;14.52;;
65387;SDS011;51992;53.528;49.474;2022-11-25T02:45:12;17.70;;;14.00;;
65387;SDS011;51992;53.528;49.474;2022-11-25T02:47:40;19.73;;;15.23;;
65387;SDS011;51992;53.528;49.474;2022-11-25T02:50:05;17.73;;;14.18;;
65387;SDS011;51992;53.528;49.474;2022-11-25T02:52:31;18.50;;;14.25;;
65387;SDS011;51992;53.528;49.474;2022-11-25T02:54:57;17.90;;;14.18;;
65387;SDS011;51992;53.528;49.474;2022-11-25T02:57:23;17.25;;;14.48;;
65387;SDS011;51992;53.528;49.474;2022-11-25T02:59:48;21.02;;;14.32;;
65387;SDS011;51992;53.528;49.474;2022-11-25T03:02:14;19.65;;;15.10;;
65387;SDS011;51992;53.528;49.474;2022-11-25T03:04:40;19.17;;;14.80;;
65387;SDS011;51992;53.528;49.474;2022-11-25T03:07:05;19.80;;;15.60;;
65387;SDS011;51992;53.528;49.474;2022-11-25T03:09:31;19.95;;;14.82;;
65387;SDS011;51992;53.528;49.474;2022-11-25T03:11:57;18.58;;;14.75;;
65387;SDS011;51992;53.528;49.474;2022-11-25T03:14:41;19.60;;;14.75;;
65387;SDS011;51992;53.528;49.474;2022-11-25T03:17:07;19.15;;;14.65;;
65387;SDS011;51992;53.528;49.474;2022-11-25T03:19:33;20.45;;;14.95;;
65387;SDS011;51992;53.528;49.474;2022-11-25T03:21:58;18.27;;;14.57;;
65387;SDS011;51992;53.528;49.474;2022-11-25T03:24:24;19.70;;;15.02;;
65387;SDS011;51992;53.528;49.474;2022-11-25T03:26:50;20.02;;;14.73;;
65387;SDS011;51992;53.528;49.474;2022-11-25T03:29:15;23.60;;;15.85;;
65387;SDS011;51992;53.528;49.474;2022-11-25T03:31:41;28.25;;;15.80;;
65387;SDS011;51992;53.528;49.474;2022-11-25T03:34:07;20.17;;;15.38;;
65387;SDS011;51992;53.528;49.474;2022-11-25T03:36:32;20.17;;;15.05;;
65387;SDS011;51992;53.528;49.474;2022-11-25T03:38:58;21.05;;;16.10;;
65387;SDS011;51992;53.528;49.474;2022-11-25T03:41:24;20.67;;;15.48;;
65387;SDS011;51992;53.528;49.474;2022-11-25T03:43:49;24.00;;;16.80;;
65387;SDS011;51992;53.528;49.474;2022-11-25T03:46:15;22.17;;;16.65;;
65387;SDS011;51992;53.528;49.474;2022-11-25T03:48:41;24.50;;;17.88;;
65387;SDS011;51992;53.528;49.474;2022-11-25T03:51:06;21.83;;;16.48;;
65387;SDS011;51992;53.528;49.474;2022-11-25T03:53:32;20.95;;;15.23;;
65387;SDS011;51992;53.528;49.474;2022-11-25T03:55:58;25.67;;;16.38;;
65387;SDS011;51992;53.528;49.474;2022-11-25T03:58:24;20.58;;;14.88;;
65387;SDS011;51992;53.528;49.474;2022-11-25T04:00:50;21.73;;;15.85;;
65387;SDS011;51992;53.528;49.474;2022-11-25T04:03:15;31.58;;;20.60;;
65387;SDS011;51992;53.528;49.474;2022-11-25T04:05:41;28.15;;;19.35;;
65387;SDS011;51992;53.528;49.474;2022-11-25T04:08:07;29.88;;;20.25;;
65387;SDS011;51992;53.528;49.474;2022-11-25T04:10:33;26.02;;;18.23;;
65387;SDS011;51992;53.528;49.474;2022-11-25T04:12:58;22.73;;;16.25;;
65387;SDS011;51992;53.528;49.474;2022-11-25T04:15:24;24.70;;;16.63;;
65387;SDS011;51992;53.528;49.474;2022-11-25T04:17:50;32.58;;;21.23;;
65387;SDS011;51992;53.528;49.474;2022-11-25T04:20:15;28.15;;;17.75;;
65387;SDS011;51992;53.528;49.474;2022-11-25T04:22:41;27.70;;;18.17;;
65387;SDS011;51992;53.528;49.474;2022-11-25T04:25:07;32.13;;;19.85;;
65387;SDS011;51992;53.528;49.474;2022-11-25T04:27:33;31.80;;;20.10;;
65387;SDS011;51992;53.528;49.474;2022-11-25T04:29:59;29.02;;;18.90;;
65387;SDS011;51992;53.528;49.474;2022-11-25T04:32:25;31.80;;;19.38;;
65387;SDS011;51992;53.528;49.474;2022-11-25T04:34:50;29.13;;;18.48;;
65387;SDS011;51992;53.528;49.474;2022-11-25T04:37:16;30.50;;;19.33;;
65387;SDS011;51992;53.528;49.474;2022-11-25T04:39:42;28.63;;;17.17;;
65387;SDS011;51992;53.528;49.474;2022-11-25T04:42:07;24.92;;;16.92;;
65387;SDS011;51992;53.528;49.474;2022-11-25T04:44:55;27.42;;;17.08;;
65387;SDS011;51992;53.528;49.474;2022-11-25T04:47:20;27.00;;;18.30;;
65387;SDS011;51992;53.528;49.474;2022-11-25T04:49:46;25.42;;;17.02;;
65387;SDS011;51992;53.528;49.474;2022-11-25T04:52:12;23.38;;;16.50;;
65387;SDS011;51992;53.528;49.474;2022-11-25T04:54:37;51.25;;;36.85;;
65387;SDS011;51992;53.528;49.474;2022-11-25T04:57:03;30.95;;;21.42;;
65387;SDS011;51992;53.528;49.474;2022-11-25T04:59:29;26.40;;;19.90;;
65387;SDS011;51992;53.528;49.474;2022-11-25T05:04:40;27.20;;;17.88;;
65387;SDS011;51992;53.528;49.474;2022-11-25T05:07:06;25.77;;;17.48;;
65387;SDS011;51992;53.528;49.474;2022-11-25T05:09:32;29.48;;;16.92;;
65387;SDS011;51992;53.528;49.474;2022-11-25T05:11:57;26.55;;;18.77;;
65387;SDS011;51992;53.528;49.474;2022-11-25T05:14:23;26.25;;;16.88;;
65387;SDS011;51992;53.528;49.474;2022-11-25T05:16:50;25.02;;;17.08;;
65387;SDS011;51992;53.528;49.474;2022-11-25T05:19:15;23.98;;;16.83;;
65387;SDS011;51992;53.528;49.474;2022-11-25T05:21:41;24.98;;;16.60;;
65387;SDS011;51992;53.528;49.474;2022-11-25T05:24:07;25.77;;;17.65;;
65387;SDS011;51992;53.528;49.474;2022-11-25T05:26:32;28.60;;;19.00;;
65387;SDS011;51992;53.528;49.474;2022-11-25T05:28:58;27.05;;;17.88;;
65387;SDS011;51992;53.528;49.474;2022-11-25T05:31:24;28.88;;;18.63;;
65387;SDS011;51992;53.528;49.474;2022-11-25T05:33:49;29.10;;;19.05;;
65387;SDS011;51992;53.528;49.474;2022-11-25T05:36:16;28.70;;;20.27;;
65387;SDS011;51992;53.528;49.474;2022-11-25T05:38:41;29.13;;;20.92;;
65387;SDS011;51992;53.528;49.474;2022-11-25T05:41:07;25.38;;;18.27;;
65387;SDS011;51992;53.528;49.474;2022-11-25T05:43:35;28.75;;;20.10;;
65387;SDS011;51992;53.528;49.474;2022-11-25T05:46:05;25.73;;;17.52;;
65387;SDS011;51992;53.528;49.474;2022-11-25T05:48:31;25.80;;;17.88;;
65387;SDS011;51992;53.528;49.474;2022-11-25T05:51:00;25.70;;;17.77;;
65387;SDS011;51992;53.528;49.474;2022-11-25T05:53:26;24.70;;;16.98;;
65387;SDS011;51992;53.528;49.474;2022-11-25T05:55:53;23.33;;;16.35;;
65387;SDS011;51992;53.528;49.474;2022-11-25T05:58:19;24.52;;;17.85;;
65387;SDS011;51992;53.528;49.474;2022-11-25T06:00:45;30.15;;;17.90;;
65387;SDS011;51992;53.528;49.474;2022-11-25T06:03:10;24.25;;;16.90;;
65387;SDS011;51992;53.528;49.474;2022-11-25T06:05:36;22.98;;;15.35;;
65387;SDS011;51992;53.528;49.474;2022-11-25T06:08:03;21.52;;;15.55;;
65387;SDS011;51992;53.528;49.474;2022-11-25T06:10:28;22.45;;;15.77;;
65387;SDS011;51992;53.528;49.474;2022-11-25T06:12:54;40.75;;;27.25;;
65387;SDS011;51992;53.528;49.474;2022-11-25T06:15:20;42.17;;;29.48;;
65387;SDS011;51992;53.528;49.474;2022-11-25T06:17:46;37.70;;;25.15;;
65387;SDS011;51992;53.528;49.474;2022-11-25T06:20:11;29.30;;;20.00;;
65387;SDS011;51992;53.528;49.474;2022-11-25T06:22:37;27.20;;;18.15;;
65387;SDS011;51992;53.528;49.474;2022-11-25T06:25:03;25.80;;;18.35;;
65387;SDS011;51992;53.528;49.474;2022-11-25T06:27:29;54.00;;;33.95;;
65387;SDS011;51992;53.528;49.474;2022-11-25T06:29:55;56.05;;;35.65;;
65387;SDS011;51992;53.528;49.474;2022-11-25T06:32:21;57.38;;;37.03;;
65387;SDS011;51992;53.528;49.474;2022-11-25T06:34:47;56.20;;;36.38;;
65387;SDS011;51992;53.528;49.474;2022-11-25T06:37:12;47.10;;;28.52;;
65387;SDS011;51992;53.528;49.474;2022-11-25T06:39:38;47.53;;;28.20;;
65387;SDS011;51992;53.528;49.474;2022-11-25T06:42:04;45.40;;;27.20;;
65387;SDS011;51992;53.528;49.474;2022-11-25T06:44:29;45.83;;;24.80;;
65387;SDS011;51992;53.528;49.474;2022-11-25T06:46:55;42.67;;;24.67;;
65387;SDS011;51992;53.528;49.474;2022-11-25T06:49:21;51.63;;;26.60;;
65387;SDS011;51992;53.528;49.474;2022-11-25T06:51:48;54.33;;;26.02;;
65387;SDS011;51992;53.528;49.474;2022-11-25T06:54:13;51.28;;;27.67;;
65387;SDS011;51992;53.528;49.474;2022-11-25T06:56:39;49.67;;;27.20;;
65387;SDS011;51992;53.528;49.474;2022-11-25T06:59:05;47.67;;;26.90;;
65387;SDS011;51992;53.528;49.474;2022-11-25T07:01:31;45.90;;;25.55;;
65387;SDS011;51992;53.528;49.474;2022-11-25T07:04:01;37.78;;;22.42;;
65387;SDS011;51992;53.528;49.474;2022-11-25T07:06:28;35.63;;;21.33;;
65387;SDS011;51992;53.528;49.474;2022-11-25T07:08:54;34.53;;;20.90;;
65387;SDS011;51992;53.528;49.474;2022-11-25T07:11:23;32.00;;;20.83;;
65387;SDS011;51992;53.528;49.474;2022-11-25T07:13:50;33.08;;;20.05;;
65387;SDS011;51992;53.528;49.474;2022-11-25T07:16:17;33.63;;;19.90;;
65387;SDS011;51992;53.528;49.474;2022-11-25T07:18:42;35.97;;;21.40;;
65387;SDS011;51992;53.528;49.474;2022-11-25T07:21:09;35.83;;;22.13;;
65387;SDS011;51992;53.528;49.474;2022-11-25T07:23:36;36.53;;;22.25;;
65387;SDS011;51992;53.528;49.474;2022-11-25T07:26:02;40.67;;;24.30;;
65387;SDS011;51992;53.528;49.474;2022-11-25T07:28:28;47.85;;;27.23;;
65387;SDS011;51992;53.528;49.474;2022-11-25T07:30:54;40.95;;;25.10;;
65387;SDS011;51992;53.528;49.474;2022-11-25T07:33:20;41.80;;;26.05;;
65387;SDS011;51992;53.528;49.474;2022-11-25T07:35:46;44.22;;;25.55;;
65387;SDS011;51992;53.528;49.474;2022-11-25T07:38:11;38.40;;;22.83;;
65387;SDS011;51992;53.528;49.474;2022-11-25T07:40:37;33.58;;;21.27;;
65387;SDS011;51992;53.528;49.474;2022-11-25T07:43:03;34.47;;;20.92;;
65387;SDS011;51992;53.528;49.474;2022-11-25T07:45:28;38.15;;;22.83;;
65387;SDS011;51992;53.528;49.474;2022-11-25T07:47:54;57.97;;;31.67;;
65387;SDS011;51992;53.528;49.474;2022-11-25T07:50:20;59.08;;;30.88;;
65387;SDS011;51992;53.528;49.474;2022-11-25T07:52:45;70.78;;;36.47;;
65387;SDS011;51992;53.528;49.474;2022-11-25T07:55:11;45.92;;;28.35;;
65387;SDS011;51992;53.528;49.474;2022-11-25T07:57:37;46.17;;;27.15;;
65387;SDS011;51992;53.528;49.474;2022-11-25T08:00:03;55.70;;;31.52;;
65387;SDS011;51992;53.528;49.474;2022-11-25T08:02:29;42.92;;;26.23;;
65387;SDS011;51992;53.528;49.474;2022-11-25T08:04:55;45.17;;;26.58;;
65387;SDS011;51992;53.528;49.474;2022-11-25T08:07:20;47.53;;;26.95;;
65387;SDS011;51992;53.528;49.474;2022-11-25T08:09:46;43.72;;;24.92;;
65387;SDS011;51992;53.528;49.474;2022-11-25T08:12:12;54.08;;;30.40;;
65387;SDS011;51992;53.528;49.474;2022-11-25T08:14:37;51.88;;;30.80;;
65387;SDS011;51992;53.528;49.474;2022-11-25T08:17:03;53.38;;;31.00;;
65387;SDS011;51992;53.528;49.474;2022-11-25T08:19:30;54.60;;;32.10;;
65387;SDS011;51992;53.528;49.474;2022-11-25T08:21:56;47.67;;;29.08;;
65387;SDS011;51992;53.528;49.474;2022-11-25T08:24:22;54.90;;;31.05;;
65387;SDS011;51992;53.528;49.474;2022-11-25T08:26:48;52.38;;;29.52;;
65387;SDS011;51992;53.528;49.474;2022-11-25T08:29:14;57.05;;;32.78;;
65387;SDS011;51992;53.528;49.474;2022-11-25T08:31:40;53.90;;;33.60;;
65387;SDS011;51992;53.528;49.474;2022-11-25T08:34:07;44.55;;;27.33;;
65387;SDS011;51992;53.528;49.474;2022-11-25T08:36:33;48.92;;;27.20;;
65387;SDS011;51992;53.528;49.474;2022-11-25T08:39:00;47.97;;;28.40;;
65387;SDS011;51992;53.528;49.474;2022-11-25T08:41:27;55.45;;;31.80;;
65387;SDS011;51992;53.528;49.474;2022-11-25T08:43:53;49.20;;;27.77;;
65387;SDS011;51992;53.528;49.474;2022-11-25T08:46:20;42.97;;;27.60;;
65387;SDS011;51992;53.528;49.474;2022-11-25T08:48:46;40.47;;;25.58;;
65387;SDS011;51992;53.528;49.474;2022-11-25T08:51:13;38.58;;;21.98;;
65387;SDS011;51992;53.528;49.474;2022-11-25T08:53:40;30.25;;;19.10;;
65387;SDS011;51992;53.528;49.474;2022-11-25T08:56:06;28.70;;;18.30;;
65387;SDS011;51992;53.528;49.474;2022-11-25T08:58:32;31.55;;;20.40;;
65387;SDS011;51992;53.528;49.474;2022-11-25T09:00:58;36.95;;;21.25;;
65387;SDS011;51992;53.528;49.474;2022-11-25T09:03:24;33.80;;;21.55;;
65387;SDS011;51992;53.528;49.474;2022-11-25T09:05:50;34.42;;;22.65;;
65387;SDS011;51992;53.528;49.474;2022-11-25T09:08:16;30.35;;;19.02;;
65387;SDS011;51992;53.528;49.474;2022-11-25T09:10:42;30.85;;;19.77;;
65387;SDS011;51992;53.528;49.474;2022-11-25T09:13:08;36.92;;;22.75;;
65387;SDS011;51992;53.528;49.474;2022-11-25T09:15:35;35.88;;;22.95;;
65387;SDS011;51992;53.528;49.474;2022-11-25T09:18:02;32.28;;;21.08;;
65387;SDS011;51992;53.528;49.474;2022-11-25T09:20:28;34.90;;;19.75;;
65387;SDS011;51992;53.528;49.474;2022-11-25T09:22:54;30.35;;;19.15;;
65387;SDS011;51992;53.528;49.474;2022-11-25T09:25:20;36.05;;;21.83;;
65387;SDS011;51992;53.528;49.474;2022-11-25T09:27:46;38.53;;;24.38;;
65387;SDS011;51992;53.528;49.474;2022-11-25T09:30:12;33.60;;;21.35;;
65387;SDS011;51992;53.528;49.474;2022-11-25T09:32:37;33.35;;;21.50;;
65387;SDS011;51992;53.528;49.474;2022-11-25T09:35:03;31.77;;;21.83;;
65387;SDS011;51992;53.528;49.474;2022-11-25T09:37:29;32.33;;;21.55;;
65387;SDS011;51992;53.528;49.474;2022-11-25T09:39:55;31.52;;;21.90;;
65387;SDS011;51992;53.528;49.474;2022-11-25T09:45:50;31.20;;;18.98;;
65387;SDS011;51992;53.528;49.474;2022-11-25T09:53:43;41.00;;;26.45;;
65387;SDS011;51992;53.528;49.474;2022-11-25T09:56:21;41.90;;;26.20;;
65387;SDS011;51992;53.528;49.474;2022-11-25T09:58:51;47.27;;;29.73;;
65387;SDS011;51992;53.528;49.474;2022-11-25T10:01:20;39.85;;;24.67;;
65387;SDS011;51992;53.528;49.474;2022-11-25T10:06:20;33.45;;;22.25;;
65387;SDS011;51992;53.528;49.474;2022-11-25T10:08:49;38.30;;;25.00;;
65387;SDS011;51992;53.528;49.474;2022-11-25T10:16:34;26.70;;;18.10;;
65387;SDS011;51992;53.528;49.474;2022-11-25T10:21:44;27.45;;;19.90;;
65387;SDS011;51992;53.528;49.474;2022-11-25T10:24:14;36.65;;;24.42;;
65387;SDS011;51992;53.528;49.474;2022-11-25T10:26:47;28.73;;;19.27;;
65387;SDS011;51992;53.528;49.474;2022-11-25T10:31:40;28.60;;;19.17;;
65387;SDS011;51992;53.528;49.474;2022-11-25T10:34:52;35.15;;;23.50;;
65387;SDS011;51992;53.528;49.474;2022-11-25T10:36:53;31.70;;;21.77;;
65387;SDS011;51992;53.528;49.474;2022-11-25T10:47:03;63.22;;;37.95;;
65387;SDS011;51992;53.528;49.474;2022-11-25T10:52:19;35.28;;;20.65;;
65387;SDS011;51992;53.528;49.474;2022-11-25T10:54:54;32.28;;;20.05;;
65387;SDS011;51992;53.528;49.474;2022-11-25T10:57:19;32.13;;;18.73;;
65387;SDS011;51992;53.528;49.474;2022-11-25T10:59:58;35.13;;;19.70;;
65387;SDS011;51992;53.528;49.474;2022-11-25T11:05:12;38.70;;;21.17;;
65387;SDS011;51992;53.528;49.474;2022-11-25T11:07:42;32.38;;;18.42;;
65387;SDS011;51992;53.528;49.474;2022-11-25T11:10:20;29.70;;;18.33;;
65387;SDS011;51992;53.528;49.474;2022-11-25T11:13:03;29.00;;;17.60;;
65387;SDS011;51992;53.528;49.474;2022-11-25T11:15:30;33.42;;;19.75;;
65387;SDS011;51992;53.528;49.474;2022-11-25T11:17:57;30.58;;;19.30;;
65387;SDS011;51992;53.528;49.474;2022-11-25T11:22:56;30.27;;;18.83;;
65387;SDS011;51992;53.528;49.474;2022-11-25T11:25:27;29.98;;;18.58;;
65387;SDS011;51992;53.528;49.474;2022-11-25T11:27:53;32.53;;;20.13;;
65387;SDS011;51992;53.528;49.474;2022-11-25T11:30:20;37.50;;;23.27;;
65387;SDS011;51992;53.528;49.474;2022-11-25T11:32:55;33.67;;;18.65;;
65387;SDS011;51992;53.528;49.474;2022-11-25T11:37:51;31.67;;;19.60;;
65387;SDS011;51992;53.528;49.474;2022-11-25T11:40:34;29.95;;;18.75;;
65387;SDS011;51992;53.528;49.474;2022-11-25T11:43:05;31.92;;;18.40;;
65387;SDS011;51992;53.528;49.474;2022-11-25T11:45:52;31.90;;;19.10;;
65387;SDS011;51992;53.528;49.474;2022-11-25T11:51:11;36.97;;;24.05;;
65387;SDS011;51992;53.528;49.474;2022-11-25T11:58:48;51.33;;;34.30;;
65387;SDS011;51992;53.528;49.474;2022-11-25T12:06:26;42.55;;;28.45;;
65387;SDS011;51992;53.528;49.474;2022-11-25T12:08:54;45.17;;;27.58;;
65387;SDS011;51992;53.528;49.474;2022-11-25T12:11:31;42.65;;;27.90;;
65387;SDS011;51992;53.528;49.474;2022-11-25T12:14:11;41.80;;;26.10;;
65387;SDS011;51992;53.528;49.474;2022-11-25T12:16:43;44.80;;;27.23;;
65387;SDS011;51992;53.528;49.474;2022-11-25T12:19:14;38.33;;;25.17;;
65387;SDS011;51992;53.528;49.474;2022-11-25T12:29:50;32.95;;;21.83;;
65387;SDS011;51992;53.528;49.474;2022-11-25T12:34:50;33.17;;;21.02;;
65387;SDS011;51992;53.528;49.474;2022-11-25T12:37:31;39.60;;;25.15;;
65387;SDS011;51992;53.528;49.474;2022-11-25T12:42:25;39.30;;;24.25;;
65387;SDS011;51992;53.528;49.474;2022-11-25T12:45:01;35.60;;;22.73;;
65387;SDS011;51992;53.528;49.474;2022-11-25T12:47:27;36.35;;;21.75;;
65387;SDS011;51992;53.528;49.474;2022-11-25T12:49:54;34.10;;;21.48;;
65387;SDS011;51992;53.528;49.474;2022-11-25T13:13:17;26.13;;;16.85;;
65387;SDS011;51992;53.528;49.474;2022-11-25T13:15:47;26.60;;;16.52;;
65387;SDS011;51992;53.528;49.474;2022-11-25T13:18:15;27.27;;;16.15;;
65387;SDS011;51992;53.528;49.474;2022-11-25T13:20:42;22.67;;;15.65;;
65387;SDS011;51992;53.528;49.474;2022-11-25T13:25:38;23.13;;;14.85;;
65387;SDS011;51992;53.528;49.474;2022-11-25T13:28:05;23.10;;;15.05;;
65387;SDS011;51992;53.528;49.474;2022-11-25T13:30:51;22.95;;;14.48;;
65387;SDS011;51992;53.528;49.474;2022-11-25T13:40:57;43.95;;;26.05;;
65387;SDS011;51992;53.528;49.474;2022-11-25T13:43:23;47.35;;;27.73;;
65387;SDS011;51992;53.528;49.474;2022-11-25T13:45:49;38.05;;;23.45;;
65387;SDS011;51992;53.528;49.474;2022-11-25T13:48:22;32.85;;;21.38;;
65387;SDS011;51992;53.528;49.474;2022-11-25T13:50:49;40.00;;;24.35;;
65387;SDS011;51992;53.528;49.474;2022-11-25T13:58:25;34.25;;;20.67;;
65387;SDS011;51992;53.528;49.474;2022-11-25T14:26:39;28.15;;;18.20;;
65387;SDS011;51992;53.528;49.474;2022-11-25T14:29:13;29.45;;;17.58;;
65387;SDS011;51992;53.528;49.474;2022-11-25T14:32:24;26.45;;;17.95;;
65387;SDS011;51992;53.528;49.474;2022-11-25T14:34:32;26.63;;;18.17;;
65387;SDS011;51992;53.528;49.474;2022-11-25T14:37:20;26.92;;;18.15;;
65387;SDS011;51992;53.528;49.474;2022-11-25T14:40:05;30.27;;;18.10;;
65387;SDS011;51992;53.528;49.474;2022-11-25T14:42:34;28.20;;;17.55;;
65387;SDS011;51992;53.528;49.474;2022-11-25T14:45:02;34.08;;;19.33;;
65387;SDS011;51992;53.528;49.474;2022-11-25T14:47:29;29.70;;;18.80;;
65387;SDS011;51992;53.528;49.474;2022-11-25T14:49:56;29.92;;;19.27;;
65387;SDS011;51992;53.528;49.474;2022-11-25T14:52:32;35.08;;;20.70;;
65387;SDS011;51992;53.528;49.474;2022-11-25T14:54:59;33.10;;;21.52;;
65387;SDS011;51992;53.528;49.474;2022-11-25T14:57:26;34.78;;;17.77;;
65387;SDS011;51992;53.528;49.474;2022-11-25T14:59:53;35.97;;;20.42;;
65387;SDS011;51992;53.528;49.474;2022-11-25T15:02:28;40.60;;;24.67;;
65387;SDS011;51992;53.528;49.474;2022-11-25T15:05:16;40.25;;;24.20;;
65387;SDS011;51992;53.528;49.474;2022-11-25T15:07:41;53.33;;;30.23;;
65387;SDS011;51992;53.528;49.474;2022-11-25T15:15:44;72.50;;;38.75;;
65387;SDS011;51992;53.528;49.474;2022-11-25T15:18:13;45.75;;;26.35;;
65387;SDS011;51992;53.528;49.474;2022-11-25T15:20:44;33.20;;;22.17;;
65387;SDS011;51992;53.528;49.474;2022-11-25T15:23:10;33.72;;;20.38;;
65387;SDS011;51992;53.528;49.474;2022-11-25T15:25:47;30.75;;;19.50;;
65387;SDS011;51992;53.528;49.474;2022-11-25T15:28:14;34.08;;;20.33;;
65387;SDS011;51992;53.528;49.474;2022-11-25T15:30:40;34.80;;;21.48;;
65387;SDS011;51992;53.528;49.474;2022-11-25T15:33:07;37.40;;;22.48;;
65387;SDS011;51992;53.528;49.474;2022-11-25T15:35:34;36.60;;;21.13;;
65387;SDS011;51992;53.528;49.474;2022-11-25T15:38:15;37.33;;;21.13;;
65387;SDS011;51992;53.528;49.474;2022-11-25T15:40:41;42.95;;;24.73;;
65387;SDS011;51992;53.528;49.474;2022-11-25T15:43:24;35.90;;;21.15;;
65387;SDS011;51992;53.528;49.474;2022-11-25T15:45:52;36.13;;;21.95;;
65387;SDS011;51992;53.528;49.474;2022-11-25T15:48:24;39.75;;;24.00;;
65387;SDS011;51992;53.528;49.474;2022-11-25T15:50:50;38.65;;;24.25;;
65387;SDS011;51992;53.528;49.474;2022-11-25T15:53:22;43.83;;;23.88;;
65387;SDS011;51992;53.528;49.474;2022-11-25T15:55:48;37.45;;;22.77;;
65387;SDS011;51992;53.528;49.474;2022-11-25T15:58:18;38.42;;;22.52;;
65387;SDS011;51992;53.528;49.474;2022-11-25T16:03:30;36.10;;;22.08;;
65387;SDS011;51992;53.528;49.474;2022-11-25T16:05:59;39.63;;;22.10;;
65387;SDS011;51992;53.528;49.474;2022-11-25T16:08:30;41.50;;;22.70;;
65387;SDS011;51992;53.528;49.474;2022-11-25T16:10:57;45.90;;;26.70;;
65387;SDS011;51992;53.528;49.474;2022-11-25T16:21:04;40.30;;;24.65;;
65387;SDS011;51992;53.528;49.474;2022-11-25T16:23:34;53.22;;;34.67;;
65387;SDS011;51992;53.528;49.474;2022-11-25T16:28:35;76.10;;;46.90;;
65387;SDS011;51992;53.528;49.474;2022-11-25T16:31:01;75.47;;;46.55;;
65387;SDS011;51992;53.528;49.474;2022-11-25T16:33:27;74.05;;;42.78;;
65387;SDS011;51992;53.528;49.474;2022-11-25T16:35:53;69.65;;;39.50;;
65387;SDS011;51992;53.528;49.474;2022-11-25T16:38:18;60.63;;;32.33;;
65387;SDS011;51992;53.528;49.474;2022-11-25T16:40:44;44.35;;;22.17;;
65387;SDS011;51992;53.528;49.474;2022-11-25T16:43:23;45.53;;;24.85;;
65387;SDS011;51992;53.528;49.474;2022-11-25T16:45:51;48.30;;;24.75;;
65387;SDS011;51992;53.528;49.474;2022-11-25T16:48:19;50.58;;;26.50;;
65387;SDS011;51992;53.528;49.474;2022-11-25T16:50:45;42.90;;;22.60;;